sensor_id;sensor_type;location;lat;lon;timestamp;P1;durP1;ratioP1;P2;durP2;ratioP2
62848;SDS011;48941;49.516;8.286;2023-07-31T00:01:57;4.13;;;2.00;;
62848;SDS011;48941;49.516;8.286;2023-07-31T00:04:25;4.95;;;1.92;;
62848;SDS011;48941;49.516;8.286;2023-07-31T00:06:53;5.22;;;1.95;;
62848;SDS011;48941;49.516;8.286;2023-07-31T00:09:22;5.03;;;2.65;;
62848;SDS011;48941;49.516;8.286;2023-07-31T00:11:50;3.88;;;2.00;;
62848;SDS011;48941;49.516;8.286;2023-07-31T00:14:17;3.35;;;1.85;;
62848;SDS011;48941;49.516;8.286;2023-07-31T00:16:45;4.63;;;1.98;;
62848;SDS011;48941;49.516;8.286;2023-07-31T00:19:16;5.10;;;2.00;;
62848;SDS011;48941;49.516;8.286;2023-07-31T00:21:43;5.75;;;1.88;;
62848;SDS011;48941;49.516;8.286;2023-07-31T00:24:11;5.57;;;2.63;;
62848;SDS011;48941;49.516;8.286;2023-07-31T00:26:40;2.97;;;1.60;;
62848;SDS011;48941;49.516;8.286;2023-07-31T00:29:08;4.78;;;2.13;;
62848;SDS011;48941;49.516;8.286;2023-07-31T00:31:36;5.57;;;2.03;;
62848;SDS011;48941;49.516;8.286;2023-07-31T00:34:04;4.45;;;2.05;;
62848;SDS011;48941;49.516;8.286;2023-07-31T00:36:31;5.90;;;1.90;;
62848;SDS011;48941;49.516;8.286;2023-07-31T00:38:59;3.42;;;1.83;;
62848;SDS011;48941;49.516;8.286;2023-07-31T00:41:27;6.85;;;2.00;;
62848;SDS011;48941;49.516;8.286;2023-07-31T00:43:56;3.42;;;1.90;;
62848;SDS011;48941;49.516;8.286;2023-07-31T00:46:24;4.10;;;1.92;;
62848;SDS011;48941;49.516;8.286;2023-07-31T00:48:51;5.60;;;2.33;;
62848;SDS011;48941;49.516;8.286;2023-07-31T00:51:19;3.30;;;2.00;;
62848;SDS011;48941;49.516;8.286;2023-07-31T00:53:47;4.47;;;1.90;;
62848;SDS011;48941;49.516;8.286;2023-07-31T00:56:15;4.95;;;2.17;;
62848;SDS011;48941;49.516;8.286;2023-07-31T00:58:43;8.52;;;2.15;;
62848;SDS011;48941;49.516;8.286;2023-07-31T01:01:12;6.70;;;2.05;;
62848;SDS011;48941;49.516;8.286;2023-07-31T01:03:40;4.45;;;2.08;;
62848;SDS011;48941;49.516;8.286;2023-07-31T01:06:12;5.35;;;2.05;;
62848;SDS011;48941;49.516;8.286;2023-07-31T01:08:44;3.47;;;2.00;;
62848;SDS011;48941;49.516;8.286;2023-07-31T01:11:19;8.68;;;2.03;;
62848;SDS011;48941;49.516;8.286;2023-07-31T01:13:53;3.30;;;1.92;;
62848;SDS011;48941;49.516;8.286;2023-07-31T01:16:22;3.65;;;2.03;;
62848;SDS011;48941;49.516;8.286;2023-07-31T01:18:50;6.10;;;2.10;;
62848;SDS011;48941;49.516;8.286;2023-07-31T01:21:21;4.25;;;2.00;;
62848;SDS011;48941;49.516;8.286;2023-07-31T01:24:18;3.92;;;2.10;;
62848;SDS011;48941;49.516;8.286;2023-07-31T01:26:53;4.18;;;2.08;;
62848;SDS011;48941;49.516;8.286;2023-07-31T01:29:37;4.25;;;2.17;;
62848;SDS011;48941;49.516;8.286;2023-07-31T01:32:10;3.33;;;2.15;;
62848;SDS011;48941;49.516;8.286;2023-07-31T01:34:39;7.30;;;1.92;;
62848;SDS011;48941;49.516;8.286;2023-07-31T01:37:09;7.38;;;2.15;;
62848;SDS011;48941;49.516;8.286;2023-07-31T01:39:36;6.75;;;2.03;;
62848;SDS011;48941;49.516;8.286;2023-07-31T01:42:06;6.40;;;2.13;;
62848;SDS011;48941;49.516;8.286;2023-07-31T01:44:34;5.22;;;2.30;;
62848;SDS011;48941;49.516;8.286;2023-07-31T01:47:02;7.20;;;2.30;;
62848;SDS011;48941;49.516;8.286;2023-07-31T01:49:30;4.45;;;2.10;;
62848;SDS011;48941;49.516;8.286;2023-07-31T01:51:57;3.92;;;2.00;;
62848;SDS011;48941;49.516;8.286;2023-07-31T01:54:25;4.28;;;2.10;;
62848;SDS011;48941;49.516;8.286;2023-07-31T01:56:53;3.50;;;1.90;;
62848;SDS011;48941;49.516;8.286;2023-07-31T01:59:22;6.85;;;2.30;;
62848;SDS011;48941;49.516;8.286;2023-07-31T02:01:50;6.40;;;2.30;;
62848;SDS011;48941;49.516;8.286;2023-07-31T02:04:20;3.03;;;1.92;;
62848;SDS011;48941;49.516;8.286;2023-07-31T02:06:48;6.18;;;2.30;;
62848;SDS011;48941;49.516;8.286;2023-07-31T02:09:16;6.25;;;2.35;;
62848;SDS011;48941;49.516;8.286;2023-07-31T02:11:43;6.00;;;2.25;;
62848;SDS011;48941;49.516;8.286;2023-07-31T02:14:11;9.82;;;2.22;;
62848;SDS011;48941;49.516;8.286;2023-07-31T02:16:40;8.07;;;2.33;;
62848;SDS011;48941;49.516;8.286;2023-07-31T02:19:09;6.82;;;2.13;;
62848;SDS011;48941;49.516;8.286;2023-07-31T02:21:37;5.28;;;2.10;;
62848;SDS011;48941;49.516;8.286;2023-07-31T02:24:04;3.75;;;1.90;;
62848;SDS011;48941;49.516;8.286;2023-07-31T02:26:32;7.20;;;2.50;;
62848;SDS011;48941;49.516;8.286;2023-07-31T02:29:00;4.90;;;2.00;;
62848;SDS011;48941;49.516;8.286;2023-07-31T02:31:27;5.50;;;2.13;;
62848;SDS011;48941;49.516;8.286;2023-07-31T02:33:56;6.15;;;2.15;;
62848;SDS011;48941;49.516;8.286;2023-07-31T02:36:24;5.55;;;2.30;;
62848;SDS011;48941;49.516;8.286;2023-07-31T02:38:52;8.88;;;2.22;;
62848;SDS011;48941;49.516;8.286;2023-07-31T02:41:20;7.15;;;2.20;;
62848;SDS011;48941;49.516;8.286;2023-07-31T02:43:47;3.58;;;2.13;;
62848;SDS011;48941;49.516;8.286;2023-07-31T02:46:15;5.85;;;2.40;;
62848;SDS011;48941;49.516;8.286;2023-07-31T02:48:43;7.38;;;2.15;;
62848;SDS011;48941;49.516;8.286;2023-07-31T02:51:13;6.18;;;1.90;;
62848;SDS011;48941;49.516;8.286;2023-07-31T02:53:40;6.95;;;2.28;;
62848;SDS011;48941;49.516;8.286;2023-07-31T02:56:08;4.22;;;2.50;;
62848;SDS011;48941;49.516;8.286;2023-07-31T02:58:36;5.10;;;2.20;;
62848;SDS011;48941;49.516;8.286;2023-07-31T03:01:03;7.78;;;2.40;;
62848;SDS011;48941;49.516;8.286;2023-07-31T03:03:31;6.30;;;2.17;;
62848;SDS011;48941;49.516;8.286;2023-07-31T03:05:59;7.07;;;2.60;;
62848;SDS011;48941;49.516;8.286;2023-07-31T03:08:29;4.15;;;2.17;;
62848;SDS011;48941;49.516;8.286;2023-07-31T03:10:56;7.90;;;2.25;;
62848;SDS011;48941;49.516;8.286;2023-07-31T03:13:24;4.28;;;2.30;;
62848;SDS011;48941;49.516;8.286;2023-07-31T03:15:52;5.60;;;2.28;;
62848;SDS011;48941;49.516;8.286;2023-07-31T03:18:20;4.45;;;2.17;;
62848;SDS011;48941;49.516;8.286;2023-07-31T03:20:47;5.53;;;2.47;;
62848;SDS011;48941;49.516;8.286;2023-07-31T03:23:15;7.70;;;2.70;;
62848;SDS011;48941;49.516;8.286;2023-07-31T03:25:56;3.65;;;2.08;;
62848;SDS011;48941;49.516;8.286;2023-07-31T03:28:24;4.50;;;2.25;;
62848;SDS011;48941;49.516;8.286;2023-07-31T03:30:52;6.57;;;2.60;;
62848;SDS011;48941;49.516;8.286;2023-07-31T03:33:20;5.50;;;2.35;;
62848;SDS011;48941;49.516;8.286;2023-07-31T03:35:48;5.15;;;2.20;;
62848;SDS011;48941;49.516;8.286;2023-07-31T03:38:16;6.93;;;2.63;;
62848;SDS011;48941;49.516;8.286;2023-07-31T03:40:44;3.90;;;2.25;;
62848;SDS011;48941;49.516;8.286;2023-07-31T03:43:13;7.78;;;2.60;;
62848;SDS011;48941;49.516;8.286;2023-07-31T03:45:40;10.23;;;2.50;;
62848;SDS011;48941;49.516;8.286;2023-07-31T03:48:08;3.47;;;2.00;;
62848;SDS011;48941;49.516;8.286;2023-07-31T03:50:36;7.90;;;2.90;;
62848;SDS011;48941;49.516;8.286;2023-07-31T03:53:04;5.95;;;2.20;;
62848;SDS011;48941;49.516;8.286;2023-07-31T03:55:31;6.55;;;2.50;;
62848;SDS011;48941;49.516;8.286;2023-07-31T03:57:59;5.90;;;2.30;;
62848;SDS011;48941;49.516;8.286;2023-07-31T04:00:28;5.90;;;2.10;;
62848;SDS011;48941;49.516;8.286;2023-07-31T04:02:56;6.25;;;2.42;;
62848;SDS011;48941;49.516;8.286;2023-07-31T04:05:24;3.17;;;2.17;;
62848;SDS011;48941;49.516;8.286;2023-07-31T04:07:52;3.63;;;2.10;;
62848;SDS011;48941;49.516;8.286;2023-07-31T04:10:19;5.35;;;2.30;;
62848;SDS011;48941;49.516;8.286;2023-07-31T04:12:47;8.80;;;2.67;;
62848;SDS011;48941;49.516;8.286;2023-07-31T04:15:15;10.43;;;2.60;;
62848;SDS011;48941;49.516;8.286;2023-07-31T04:17:44;6.95;;;2.50;;
62848;SDS011;48941;49.516;8.286;2023-07-31T04:20:12;4.78;;;2.35;;
62848;SDS011;48941;49.516;8.286;2023-07-31T04:22:39;5.90;;;2.22;;
62848;SDS011;48941;49.516;8.286;2023-07-31T04:25:07;6.55;;;2.50;;
62848;SDS011;48941;49.516;8.286;2023-07-31T04:27:35;8.60;;;2.90;;
62848;SDS011;48941;49.516;8.286;2023-07-31T04:30:03;7.00;;;2.45;;
62848;SDS011;48941;49.516;8.286;2023-07-31T04:32:32;5.03;;;2.53;;
62848;SDS011;48941;49.516;8.286;2023-07-31T04:35:03;7.50;;;2.40;;
62848;SDS011;48941;49.516;8.286;2023-07-31T04:37:31;5.85;;;2.50;;
62848;SDS011;48941;49.516;8.286;2023-07-31T04:39:59;8.23;;;2.50;;
62848;SDS011;48941;49.516;8.286;2023-07-31T04:42:27;5.55;;;2.30;;
62848;SDS011;48941;49.516;8.286;2023-07-31T04:44:54;3.92;;;2.10;;
62848;SDS011;48941;49.516;8.286;2023-07-31T04:47:22;5.72;;;2.13;;
62848;SDS011;48941;49.516;8.286;2023-07-31T04:49:50;5.30;;;2.40;;
62848;SDS011;48941;49.516;8.286;2023-07-31T04:52:19;6.43;;;2.60;;
62848;SDS011;48941;49.516;8.286;2023-07-31T04:54:46;5.32;;;2.15;;
62848;SDS011;48941;49.516;8.286;2023-07-31T04:57:14;9.43;;;2.60;;
62848;SDS011;48941;49.516;8.286;2023-07-31T04:59:42;3.88;;;2.22;;
62848;SDS011;48941;49.516;8.286;2023-07-31T05:02:11;6.80;;;2.83;;
62848;SDS011;48941;49.516;8.286;2023-07-31T05:04:39;5.72;;;2.50;;
62848;SDS011;48941;49.516;8.286;2023-07-31T05:07:07;5.97;;;2.35;;
62848;SDS011;48941;49.516;8.286;2023-07-31T05:09:36;9.88;;;2.25;;
62848;SDS011;48941;49.516;8.286;2023-07-31T05:12:05;6.53;;;2.47;;
62848;SDS011;48941;49.516;8.286;2023-07-31T05:14:33;6.82;;;2.50;;
62848;SDS011;48941;49.516;8.286;2023-07-31T05:17:01;7.63;;;2.35;;
62848;SDS011;48941;49.516;8.286;2023-07-31T05:19:30;8.45;;;2.40;;
62848;SDS011;48941;49.516;8.286;2023-07-31T05:21:57;6.63;;;2.53;;
62848;SDS011;48941;49.516;8.286;2023-07-31T05:24:25;7.18;;;2.70;;
62848;SDS011;48941;49.516;8.286;2023-07-31T05:26:54;6.32;;;2.60;;
62848;SDS011;48941;49.516;8.286;2023-07-31T05:29:22;11.20;;;2.60;;
62848;SDS011;48941;49.516;8.286;2023-07-31T05:31:50;4.93;;;2.20;;
62848;SDS011;48941;49.516;8.286;2023-07-31T05:34:17;5.30;;;2.17;;
62848;SDS011;48941;49.516;8.286;2023-07-31T05:36:45;7.70;;;2.75;;
62848;SDS011;48941;49.516;8.286;2023-07-31T05:39:13;5.43;;;2.38;;
62848;SDS011;48941;49.516;8.286;2023-07-31T05:41:40;3.45;;;2.08;;
62848;SDS011;48941;49.516;8.286;2023-07-31T05:44:10;7.03;;;2.40;;
62848;SDS011;48941;49.516;8.286;2023-07-31T05:46:37;6.63;;;2.40;;
62848;SDS011;48941;49.516;8.286;2023-07-31T05:49:05;4.63;;;2.40;;
62848;SDS011;48941;49.516;8.286;2023-07-31T05:51:34;9.65;;;2.60;;
62848;SDS011;48941;49.516;8.286;2023-07-31T05:54:02;10.23;;;2.78;;
62848;SDS011;48941;49.516;8.286;2023-07-31T05:56:30;6.38;;;2.67;;
62848;SDS011;48941;49.516;8.286;2023-07-31T05:58:59;8.65;;;2.95;;
62848;SDS011;48941;49.516;8.286;2023-07-31T06:01:28;6.88;;;2.70;;
62848;SDS011;48941;49.516;8.286;2023-07-31T06:03:56;8.00;;;2.95;;
62848;SDS011;48941;49.516;8.286;2023-07-31T06:06:24;5.82;;;2.50;;
62848;SDS011;48941;49.516;8.286;2023-07-31T06:08:52;6.90;;;2.30;;
62848;SDS011;48941;49.516;8.286;2023-07-31T06:11:19;5.57;;;2.50;;
62848;SDS011;48941;49.516;8.286;2023-07-31T06:13:48;4.47;;;2.30;;
62848;SDS011;48941;49.516;8.286;2023-07-31T06:16:16;5.47;;;2.20;;
62848;SDS011;48941;49.516;8.286;2023-07-31T06:18:45;9.27;;;2.42;;
62848;SDS011;48941;49.516;8.286;2023-07-31T06:21:13;4.55;;;2.40;;
62848;SDS011;48941;49.516;8.286;2023-07-31T06:23:41;3.70;;;2.20;;
62848;SDS011;48941;49.516;8.286;2023-07-31T06:26:09;7.13;;;2.50;;
62848;SDS011;48941;49.516;8.286;2023-07-31T06:28:36;5.22;;;2.28;;
62848;SDS011;48941;49.516;8.286;2023-07-31T06:31:04;8.23;;;2.60;;
62848;SDS011;48941;49.516;8.286;2023-07-31T06:33:32;6.32;;;2.67;;
62848;SDS011;48941;49.516;8.286;2023-07-31T06:36:01;6.30;;;2.30;;
62848;SDS011;48941;49.516;8.286;2023-07-31T06:38:29;7.53;;;2.65;;
62848;SDS011;48941;49.516;8.286;2023-07-31T06:40:57;5.80;;;2.45;;
62848;SDS011;48941;49.516;8.286;2023-07-31T06:43:25;9.45;;;2.67;;
62848;SDS011;48941;49.516;8.286;2023-07-31T06:45:54;4.95;;;2.20;;
62848;SDS011;48941;49.516;8.286;2023-07-31T06:48:22;4.05;;;2.45;;
62848;SDS011;48941;49.516;8.286;2023-07-31T06:50:50;5.05;;;2.53;;
62848;SDS011;48941;49.516;8.286;2023-07-31T06:53:19;5.32;;;2.50;;
62848;SDS011;48941;49.516;8.286;2023-07-31T06:55:47;5.82;;;2.20;;
62848;SDS011;48941;49.516;8.286;2023-07-31T06:58:17;4.68;;;2.22;;
62848;SDS011;48941;49.516;8.286;2023-07-31T07:00:45;6.10;;;2.45;;
62848;SDS011;48941;49.516;8.286;2023-07-31T07:03:15;7.20;;;2.40;;
62848;SDS011;48941;49.516;8.286;2023-07-31T07:05:43;7.50;;;2.50;;
62848;SDS011;48941;49.516;8.286;2023-07-31T07:08:11;6.22;;;2.28;;
62848;SDS011;48941;49.516;8.286;2023-07-31T07:10:41;4.28;;;2.28;;
62848;SDS011;48941;49.516;8.286;2023-07-31T07:13:09;4.63;;;2.85;;
62848;SDS011;48941;49.516;8.286;2023-07-31T07:15:36;4.25;;;2.35;;
62848;SDS011;48941;49.516;8.286;2023-07-31T07:18:04;10.13;;;2.60;;
62848;SDS011;48941;49.516;8.286;2023-07-31T07:20:32;8.13;;;2.30;;
62848;SDS011;48941;49.516;8.286;2023-07-31T07:23:00;5.75;;;2.55;;
62848;SDS011;48941;49.516;8.286;2023-07-31T07:25:28;9.20;;;2.78;;
62848;SDS011;48941;49.516;8.286;2023-07-31T07:27:57;8.77;;;2.50;;
62848;SDS011;48941;49.516;8.286;2023-07-31T07:30:25;5.50;;;2.67;;
62848;SDS011;48941;49.516;8.286;2023-07-31T07:32:52;9.80;;;2.85;;
62848;SDS011;48941;49.516;8.286;2023-07-31T07:35:20;10.07;;;2.78;;
62848;SDS011;48941;49.516;8.286;2023-07-31T07:37:48;9.00;;;2.83;;
62848;SDS011;48941;49.516;8.286;2023-07-31T07:40:19;6.22;;;2.53;;
62848;SDS011;48941;49.516;8.286;2023-07-31T07:42:47;8.90;;;2.80;;
62848;SDS011;48941;49.516;8.286;2023-07-31T07:45:16;4.57;;;2.42;;
62848;SDS011;48941;49.516;8.286;2023-07-31T07:47:43;5.90;;;2.60;;
62848;SDS011;48941;49.516;8.286;2023-07-31T07:50:11;3.80;;;2.65;;
62848;SDS011;48941;49.516;8.286;2023-07-31T07:52:39;4.95;;;2.40;;
62848;SDS011;48941;49.516;8.286;2023-07-31T07:55:07;5.18;;;2.58;;
62848;SDS011;48941;49.516;8.286;2023-07-31T07:57:35;6.95;;;3.28;;
62848;SDS011;48941;49.516;8.286;2023-07-31T08:00:03;6.63;;;2.20;;
62848;SDS011;48941;49.516;8.286;2023-07-31T08:02:33;8.32;;;2.78;;
62848;SDS011;48941;49.516;8.286;2023-07-31T08:05:01;5.55;;;2.40;;
62848;SDS011;48941;49.516;8.286;2023-07-31T08:07:29;4.43;;;2.53;;
62848;SDS011;48941;49.516;8.286;2023-07-31T08:09:57;4.28;;;2.55;;
62848;SDS011;48941;49.516;8.286;2023-07-31T08:12:25;5.35;;;2.50;;
62848;SDS011;48941;49.516;8.286;2023-07-31T08:14:53;9.82;;;2.50;;
62848;SDS011;48941;49.516;8.286;2023-07-31T08:17:20;6.88;;;2.95;;
62848;SDS011;48941;49.516;8.286;2023-07-31T08:19:50;4.50;;;2.50;;
62848;SDS011;48941;49.516;8.286;2023-07-31T08:22:17;6.18;;;2.40;;
62848;SDS011;48941;49.516;8.286;2023-07-31T08:24:45;7.38;;;2.70;;
62848;SDS011;48941;49.516;8.286;2023-07-31T08:27:13;5.80;;;2.83;;
62848;SDS011;48941;49.516;8.286;2023-07-31T08:29:41;6.55;;;2.63;;
62848;SDS011;48941;49.516;8.286;2023-07-31T08:32:08;9.68;;;2.80;;
62848;SDS011;48941;49.516;8.286;2023-07-31T08:34:36;4.55;;;2.45;;
62848;SDS011;48941;49.516;8.286;2023-07-31T08:37:05;4.55;;;2.40;;
62848;SDS011;48941;49.516;8.286;2023-07-31T08:39:33;5.80;;;2.70;;
62848;SDS011;48941;49.516;8.286;2023-07-31T08:42:01;4.78;;;2.53;;
62848;SDS011;48941;49.516;8.286;2023-07-31T08:44:29;6.60;;;2.63;;
62848;SDS011;48941;49.516;8.286;2023-07-31T08:46:58;5.13;;;2.50;;
62848;SDS011;48941;49.516;8.286;2023-07-31T08:49:26;6.00;;;2.80;;
62848;SDS011;48941;49.516;8.286;2023-07-31T08:51:54;8.25;;;2.65;;
62848;SDS011;48941;49.516;8.286;2023-07-31T08:54:25;7.55;;;2.92;;
62848;SDS011;48941;49.516;8.286;2023-07-31T08:56:57;7.07;;;2.70;;
62848;SDS011;48941;49.516;8.286;2023-07-31T08:59:26;5.82;;;2.63;;
62848;SDS011;48941;49.516;8.286;2023-07-31T09:01:58;7.20;;;2.90;;
62848;SDS011;48941;49.516;8.286;2023-07-31T09:04:30;6.75;;;2.90;;
62848;SDS011;48941;49.516;8.286;2023-07-31T09:07:00;7.40;;;2.90;;
62848;SDS011;48941;49.516;8.286;2023-07-31T09:09:30;7.40;;;2.85;;
62848;SDS011;48941;49.516;8.286;2023-07-31T09:11:59;6.03;;;3.10;;
62848;SDS011;48941;49.516;8.286;2023-07-31T09:14:27;4.57;;;2.42;;
62848;SDS011;48941;49.516;8.286;2023-07-31T09:16:55;8.88;;;2.72;;
62848;SDS011;48941;49.516;8.286;2023-07-31T09:19:26;6.70;;;2.53;;
62848;SDS011;48941;49.516;8.286;2023-07-31T09:21:54;10.00;;;2.80;;
62848;SDS011;48941;49.516;8.286;2023-07-31T09:24:25;9.10;;;2.67;;
62848;SDS011;48941;49.516;8.286;2023-07-31T09:26:56;5.63;;;2.60;;
62848;SDS011;48941;49.516;8.286;2023-07-31T09:29:26;7.45;;;2.70;;
62848;SDS011;48941;49.516;8.286;2023-07-31T09:31:56;7.30;;;2.80;;
62848;SDS011;48941;49.516;8.286;2023-07-31T09:34:28;5.72;;;2.63;;
62848;SDS011;48941;49.516;8.286;2023-07-31T09:36:59;7.10;;;2.60;;
62848;SDS011;48941;49.516;8.286;2023-07-31T09:39:29;10.77;;;3.08;;
62848;SDS011;48941;49.516;8.286;2023-07-31T09:41:58;10.75;;;2.90;;
62848;SDS011;48941;49.516;8.286;2023-07-31T09:44:38;7.82;;;3.10;;
62848;SDS011;48941;49.516;8.286;2023-07-31T09:47:10;7.55;;;2.58;;
62848;SDS011;48941;49.516;8.286;2023-07-31T09:49:50;6.28;;;2.80;;
62848;SDS011;48941;49.516;8.286;2023-07-31T09:52:18;5.43;;;2.70;;
62848;SDS011;48941;49.516;8.286;2023-07-31T09:54:46;9.38;;;2.90;;
62848;SDS011;48941;49.516;8.286;2023-07-31T09:57:16;8.80;;;3.38;;
62848;SDS011;48941;49.516;8.286;2023-07-31T09:59:46;5.00;;;2.70;;
62848;SDS011;48941;49.516;8.286;2023-07-31T10:02:15;7.65;;;3.13;;
62848;SDS011;48941;49.516;8.286;2023-07-31T10:04:49;9.93;;;3.30;;
62848;SDS011;48941;49.516;8.286;2023-07-31T10:07:18;8.90;;;3.40;;
62848;SDS011;48941;49.516;8.286;2023-07-31T10:09:50;8.23;;;2.95;;
62848;SDS011;48941;49.516;8.286;2023-07-31T10:12:21;7.95;;;3.22;;
62848;SDS011;48941;49.516;8.286;2023-07-31T10:14:52;6.70;;;2.78;;
62848;SDS011;48941;49.516;8.286;2023-07-31T10:17:21;8.50;;;3.00;;
62848;SDS011;48941;49.516;8.286;2023-07-31T10:19:50;7.75;;;3.10;;
62848;SDS011;48941;49.516;8.286;2023-07-31T10:22:18;5.50;;;2.65;;
62848;SDS011;48941;49.516;8.286;2023-07-31T10:24:47;6.32;;;2.83;;
62848;SDS011;48941;49.516;8.286;2023-07-31T10:27:16;8.88;;;3.20;;
62848;SDS011;48941;49.516;8.286;2023-07-31T10:29:45;7.40;;;3.28;;
62848;SDS011;48941;49.516;8.286;2023-07-31T10:32:16;5.88;;;2.78;;
62848;SDS011;48941;49.516;8.286;2023-07-31T10:34:44;5.47;;;2.97;;
62848;SDS011;48941;49.516;8.286;2023-07-31T10:37:20;6.47;;;3.35;;
62848;SDS011;48941;49.516;8.286;2023-07-31T10:39:55;7.63;;;3.63;;
62848;SDS011;48941;49.516;8.286;2023-07-31T10:42:28;7.32;;;2.97;;
62848;SDS011;48941;49.516;8.286;2023-07-31T10:44:59;5.63;;;3.00;;
62848;SDS011;48941;49.516;8.286;2023-07-31T10:47:28;7.17;;;2.90;;
62848;SDS011;48941;49.516;8.286;2023-07-31T10:52:40;9.15;;;3.75;;
62848;SDS011;48941;49.516;8.286;2023-07-31T10:55:14;8.95;;;3.25;;
62848;SDS011;48941;49.516;8.286;2023-07-31T10:57:55;10.23;;;3.20;;
62848;SDS011;48941;49.516;8.286;2023-07-31T11:00:26;7.85;;;3.10;;
62848;SDS011;48941;49.516;8.286;2023-07-31T11:02:56;5.72;;;2.78;;
62848;SDS011;48941;49.516;8.286;2023-07-31T11:05:41;5.75;;;2.85;;
62848;SDS011;48941;49.516;8.286;2023-07-31T11:08:14;4.78;;;3.05;;
62848;SDS011;48941;49.516;8.286;2023-07-31T11:10:43;7.88;;;3.13;;
62848;SDS011;48941;49.516;8.286;2023-07-31T11:13:11;11.45;;;3.17;;
62848;SDS011;48941;49.516;8.286;2023-07-31T11:15:41;8.70;;;3.28;;
62848;SDS011;48941;49.516;8.286;2023-07-31T11:18:09;9.02;;;3.05;;
62848;SDS011;48941;49.516;8.286;2023-07-31T11:20:38;8.80;;;2.92;;
62848;SDS011;48941;49.516;8.286;2023-07-31T11:23:07;5.80;;;3.20;;
62848;SDS011;48941;49.516;8.286;2023-07-31T11:25:37;8.23;;;2.90;;
62848;SDS011;48941;49.516;8.286;2023-07-31T11:28:07;10.25;;;3.10;;
62848;SDS011;48941;49.516;8.286;2023-07-31T11:30:35;6.93;;;3.10;;
62848;SDS011;48941;49.516;8.286;2023-07-31T11:33:05;6.72;;;2.85;;
62848;SDS011;48941;49.516;8.286;2023-07-31T11:35:35;9.05;;;3.20;;
62848;SDS011;48941;49.516;8.286;2023-07-31T11:38:03;8.85;;;2.85;;
62848;SDS011;48941;49.516;8.286;2023-07-31T11:40:31;8.63;;;3.42;;
62848;SDS011;48941;49.516;8.286;2023-07-31T11:43:03;4.68;;;2.95;;
62848;SDS011;48941;49.516;8.286;2023-07-31T11:45:31;7.88;;;2.95;;
62848;SDS011;48941;49.516;8.286;2023-07-31T11:48:01;8.80;;;3.05;;
62848;SDS011;48941;49.516;8.286;2023-07-31T11:50:30;5.03;;;2.80;;
62848;SDS011;48941;49.516;8.286;2023-07-31T11:53:02;9.57;;;2.88;;
62848;SDS011;48941;49.516;8.286;2023-07-31T11:55:34;12.00;;;3.10;;
62848;SDS011;48941;49.516;8.286;2023-07-31T11:58:02;7.18;;;3.22;;
62848;SDS011;48941;49.516;8.286;2023-07-31T12:00:31;4.85;;;2.90;;
62848;SDS011;48941;49.516;8.286;2023-07-31T12:02:59;8.80;;;2.72;;
62848;SDS011;48941;49.516;8.286;2023-07-31T12:05:27;4.75;;;2.70;;
62848;SDS011;48941;49.516;8.286;2023-07-31T12:07:56;6.55;;;2.83;;
62848;SDS011;48941;49.516;8.286;2023-07-31T12:10:25;5.30;;;2.80;;
62848;SDS011;48941;49.516;8.286;2023-07-31T12:13:01;6.97;;;2.95;;
62848;SDS011;48941;49.516;8.286;2023-07-31T12:15:34;7.82;;;3.00;;
62848;SDS011;48941;49.516;8.286;2023-07-31T12:18:04;4.38;;;2.47;;
62848;SDS011;48941;49.516;8.286;2023-07-31T12:20:33;5.30;;;2.97;;
62848;SDS011;48941;49.516;8.286;2023-07-31T12:23:02;12.10;;;2.80;;
62848;SDS011;48941;49.516;8.286;2023-07-31T12:25:30;6.75;;;3.13;;
62848;SDS011;48941;49.516;8.286;2023-07-31T12:28:05;5.35;;;2.72;;
62848;SDS011;48941;49.516;8.286;2023-07-31T12:30:38;16.23;;;2.97;;
62848;SDS011;48941;49.516;8.286;2023-07-31T12:33:12;7.47;;;3.00;;
62848;SDS011;48941;49.516;8.286;2023-07-31T12:35:41;5.10;;;2.65;;
62848;SDS011;48941;49.516;8.286;2023-07-31T12:38:12;5.25;;;2.60;;
62848;SDS011;48941;49.516;8.286;2023-07-31T12:40:41;5.57;;;2.70;;
62848;SDS011;48941;49.516;8.286;2023-07-31T12:43:09;9.30;;;2.85;;
62848;SDS011;48941;49.516;8.286;2023-07-31T12:45:37;8.68;;;2.80;;
62848;SDS011;48941;49.516;8.286;2023-07-31T12:48:05;7.55;;;2.58;;
62848;SDS011;48941;49.516;8.286;2023-07-31T12:50:32;9.38;;;2.85;;
62848;SDS011;48941;49.516;8.286;2023-07-31T12:53:02;4.65;;;2.53;;
62848;SDS011;48941;49.516;8.286;2023-07-31T12:55:33;7.55;;;2.70;;
62848;SDS011;48941;49.516;8.286;2023-07-31T12:58:03;6.20;;;2.90;;
62848;SDS011;48941;49.516;8.286;2023-07-31T13:00:30;5.22;;;2.90;;
62848;SDS011;48941;49.516;8.286;2023-07-31T13:02:58;8.93;;;3.10;;
62848;SDS011;48941;49.516;8.286;2023-07-31T13:05:27;5.68;;;3.13;;
62848;SDS011;48941;49.516;8.286;2023-07-31T13:07:55;7.93;;;2.80;;
62848;SDS011;48941;49.516;8.286;2023-07-31T13:10:24;5.53;;;2.83;;
62848;SDS011;48941;49.516;8.286;2023-07-31T13:12:54;6.25;;;2.60;;
62848;SDS011;48941;49.516;8.286;2023-07-31T13:15:22;7.38;;;2.70;;
62848;SDS011;48941;49.516;8.286;2023-07-31T13:17:50;5.63;;;2.80;;
62848;SDS011;48941;49.516;8.286;2023-07-31T13:20:18;4.50;;;2.90;;
62848;SDS011;48941;49.516;8.286;2023-07-31T13:22:46;8.05;;;3.55;;
62848;SDS011;48941;49.516;8.286;2023-07-31T13:25:14;7.68;;;2.97;;
62848;SDS011;48941;49.516;8.286;2023-07-31T13:27:41;4.43;;;2.70;;
62848;SDS011;48941;49.516;8.286;2023-07-31T13:30:10;6.55;;;2.90;;
62848;SDS011;48941;49.516;8.286;2023-07-31T13:32:38;6.55;;;2.92;;
62848;SDS011;48941;49.516;8.286;2023-07-31T13:35:06;4.85;;;3.00;;
62848;SDS011;48941;49.516;8.286;2023-07-31T13:37:35;5.82;;;2.90;;
62848;SDS011;48941;49.516;8.286;2023-07-31T13:40:03;6.82;;;3.33;;
62848;SDS011;48941;49.516;8.286;2023-07-31T13:42:32;6.85;;;3.38;;
62848;SDS011;48941;49.516;8.286;2023-07-31T13:45:00;7.97;;;3.50;;
62848;SDS011;48941;49.516;8.286;2023-07-31T13:50:04;7.63;;;2.95;;
62848;SDS011;48941;49.516;8.286;2023-07-31T13:52:32;7.05;;;3.08;;
62848;SDS011;48941;49.516;8.286;2023-07-31T13:54:59;10.23;;;2.95;;
62848;SDS011;48941;49.516;8.286;2023-07-31T13:57:27;3.20;;;2.88;;
62848;SDS011;48941;49.516;8.286;2023-07-31T13:59:55;5.53;;;3.13;;
62848;SDS011;48941;49.516;8.286;2023-07-31T14:02:23;6.47;;;2.80;;
62848;SDS011;48941;49.516;8.286;2023-07-31T14:04:52;8.32;;;3.75;;
62848;SDS011;48941;49.516;8.286;2023-07-31T14:07:20;7.68;;;2.95;;
62848;SDS011;48941;49.516;8.286;2023-07-31T14:09:48;7.55;;;3.03;;
62848;SDS011;48941;49.516;8.286;2023-07-31T14:12:16;6.45;;;2.63;;
62848;SDS011;48941;49.516;8.286;2023-07-31T14:15:04;6.15;;;2.60;;
62848;SDS011;48941;49.516;8.286;2023-07-31T14:17:32;5.15;;;2.60;;
62848;SDS011;48941;49.516;8.286;2023-07-31T14:20:02;10.65;;;3.00;;
62848;SDS011;48941;49.516;8.286;2023-07-31T14:22:31;9.05;;;3.13;;
62848;SDS011;48941;49.516;8.286;2023-07-31T14:25:01;6.47;;;2.80;;
62848;SDS011;48941;49.516;8.286;2023-07-31T14:27:29;6.90;;;2.92;;
62848;SDS011;48941;49.516;8.286;2023-07-31T14:29:57;6.82;;;3.00;;
62848;SDS011;48941;49.516;8.286;2023-07-31T14:32:25;5.28;;;2.55;;
62848;SDS011;48941;49.516;8.286;2023-07-31T14:34:53;7.93;;;3.08;;
62848;SDS011;48941;49.516;8.286;2023-07-31T14:37:22;5.03;;;2.90;;
62848;SDS011;48941;49.516;8.286;2023-07-31T14:39:53;6.10;;;2.80;;
62848;SDS011;48941;49.516;8.286;2023-07-31T14:42:22;4.88;;;2.85;;
62848;SDS011;48941;49.516;8.286;2023-07-31T14:44:50;8.45;;;2.90;;
62848;SDS011;48941;49.516;8.286;2023-07-31T14:47:18;9.00;;;3.00;;
62848;SDS011;48941;49.516;8.286;2023-07-31T14:49:45;4.00;;;2.50;;
62848;SDS011;48941;49.516;8.286;2023-07-31T14:52:13;5.90;;;2.78;;
62848;SDS011;48941;49.516;8.286;2023-07-31T14:54:43;5.88;;;2.85;;
62848;SDS011;48941;49.516;8.286;2023-07-31T14:57:11;4.55;;;2.55;;
62848;SDS011;48941;49.516;8.286;2023-07-31T14:59:38;3.97;;;2.70;;
62848;SDS011;48941;49.516;8.286;2023-07-31T15:02:06;7.32;;;2.67;;
62848;SDS011;48941;49.516;8.286;2023-07-31T15:04:36;3.88;;;2.55;;